sensor_id;sensor_type;location;lat;lon;timestamp;P1;durP1;ratioP1;P2;durP2;ratioP2
15114;SDS011;7658;51.456;7.622;2022-12-17T00:01:30;51.40;;;35.30;;
15114;SDS011;7658;51.456;7.622;2022-12-17T00:04:14;60.53;;;33.80;;
15114;SDS011;7658;51.456;7.622;2022-12-17T00:06:58;50.47;;;32.20;;
15114;SDS011;7658;51.456;7.622;2022-12-17T00:09:42;56.70;;;32.57;;
15114;SDS011;7658;51.456;7.622;2022-12-17T00:12:26;70.57;;;32.47;;
15114;SDS011;7658;51.456;7.622;2022-12-17T00:15:10;52.73;;;31.83;;
15114;SDS011;7658;51.456;7.622;2022-12-17T00:18:01;65.27;;;31.57;;
15114;SDS011;7658;51.456;7.622;2022-12-17T00:20:57;52.67;;;31.57;;
15114;SDS011;7658;51.456;7.622;2022-12-17T00:23:43;55.90;;;30.67;;
15114;SDS011;7658;51.456;7.622;2022-12-17T00:26:28;56.93;;;29.73;;
15114;SDS011;7658;51.456;7.622;2022-12-17T00:29:12;54.67;;;29.00;;
15114;SDS011;7658;51.456;7.622;2022-12-17T00:31:56;62.23;;;31.10;;
15114;SDS011;7658;51.456;7.622;2022-12-17T00:34:41;49.13;;;29.20;;
15114;SDS011;7658;51.456;7.622;2022-12-17T00:37:25;59.70;;;31.20;;
15114;SDS011;7658;51.456;7.622;2022-12-17T00:40:10;43.80;;;28.97;;
15114;SDS011;7658;51.456;7.622;2022-12-17T00:42:58;53.27;;;30.73;;
15114;SDS011;7658;51.456;7.622;2022-12-17T00:45:43;60.00;;;31.10;;
15114;SDS011;7658;51.456;7.622;2022-12-17T00:48:27;56.77;;;32.57;;
15114;SDS011;7658;51.456;7.622;2022-12-17T00:51:11;58.87;;;32.03;;
15114;SDS011;7658;51.456;7.622;2022-12-17T00:53:55;59.73;;;31.30;;
15114;SDS011;7658;51.456;7.622;2022-12-17T00:56:39;54.70;;;30.53;;
15114;SDS011;7658;51.456;7.622;2022-12-17T00:59:23;57.30;;;33.27;;
15114;SDS011;7658;51.456;7.622;2022-12-17T01:02:08;68.87;;;34.20;;
15114;SDS011;7658;51.456;7.622;2022-12-17T01:04:52;69.10;;;32.83;;
15114;SDS011;7658;51.456;7.622;2022-12-17T01:07:36;59.97;;;32.77;;
15114;SDS011;7658;51.456;7.622;2022-12-17T01:10:20;62.03;;;31.90;;
15114;SDS011;7658;51.456;7.622;2022-12-17T01:13:04;61.63;;;34.80;;
15114;SDS011;7658;51.456;7.622;2022-12-17T01:15:48;58.90;;;35.47;;
15114;SDS011;7658;51.456;7.622;2022-12-17T01:18:32;79.90;;;36.53;;
15114;SDS011;7658;51.456;7.622;2022-12-17T01:21:16;72.07;;;35.67;;
15114;SDS011;7658;51.456;7.622;2022-12-17T01:24:00;70.57;;;37.13;;
15114;SDS011;7658;51.456;7.622;2022-12-17T01:26:45;77.90;;;35.43;;
15114;SDS011;7658;51.456;7.622;2022-12-17T01:29:29;85.03;;;36.20;;
15114;SDS011;7658;51.456;7.622;2022-12-17T01:32:13;69.73;;;36.23;;
15114;SDS011;7658;51.456;7.622;2022-12-17T01:34:57;69.17;;;35.17;;
15114;SDS011;7658;51.456;7.622;2022-12-17T01:37:41;74.80;;;36.27;;
15114;SDS011;7658;51.456;7.622;2022-12-17T01:40:25;66.97;;;36.17;;
15114;SDS011;7658;51.456;7.622;2022-12-17T01:43:12;72.63;;;38.60;;
15114;SDS011;7658;51.456;7.622;2022-12-17T01:45:57;89.13;;;37.33;;
15114;SDS011;7658;51.456;7.622;2022-12-17T01:48:42;73.37;;;35.43;;
15114;SDS011;7658;51.456;7.622;2022-12-17T01:51:30;65.63;;;34.23;;
15114;SDS011;7658;51.456;7.622;2022-12-17T01:54:14;67.00;;;37.53;;
15114;SDS011;7658;51.456;7.622;2022-12-17T01:57:01;82.53;;;39.33;;
15114;SDS011;7658;51.456;7.622;2022-12-17T02:00:00;81.40;;;36.40;;
15114;SDS011;7658;51.456;7.622;2022-12-17T02:02:48;55.80;;;33.10;;
15114;SDS011;7658;51.456;7.622;2022-12-17T02:06:21;63.90;;;38.07;;
15114;SDS011;7658;51.456;7.622;2022-12-17T02:08:46;73.87;;;37.00;;
15114;SDS011;7658;51.456;7.622;2022-12-17T02:12:02;68.20;;;36.80;;
15114;SDS011;7658;51.456;7.622;2022-12-17T02:15:18;77.20;;;33.93;;
15114;SDS011;7658;51.456;7.622;2022-12-17T02:18:16;60.93;;;36.00;;
15114;SDS011;7658;51.456;7.622;2022-12-17T02:21:05;66.60;;;35.93;;
15114;SDS011;7658;51.456;7.622;2022-12-17T02:27:03;77.53;;;39.07;;
15114;SDS011;7658;51.456;7.622;2022-12-17T02:29:53;83.60;;;38.03;;
15114;SDS011;7658;51.456;7.622;2022-12-17T02:32:40;73.07;;;38.37;;
15114;SDS011;7658;51.456;7.622;2022-12-17T02:35:48;81.53;;;41.00;;
15114;SDS011;7658;51.456;7.622;2022-12-17T02:38:37;78.97;;;38.30;;
15114;SDS011;7658;51.456;7.622;2022-12-17T02:41:23;74.43;;;39.97;;
15114;SDS011;7658;51.456;7.622;2022-12-17T02:44:13;74.27;;;38.83;;
15114;SDS011;7658;51.456;7.622;2022-12-17T02:47:00;64.47;;;37.30;;
15114;SDS011;7658;51.456;7.622;2022-12-17T02:49:46;74.83;;;40.23;;
15114;SDS011;7658;51.456;7.622;2022-12-17T02:52:31;77.57;;;36.37;;
15114;SDS011;7658;51.456;7.622;2022-12-17T02:55:18;71.93;;;39.03;;
15114;SDS011;7658;51.456;7.622;2022-12-17T02:58:02;61.00;;;37.47;;
15114;SDS011;7658;51.456;7.622;2022-12-17T03:00:46;77.57;;;39.80;;
15114;SDS011;7658;51.456;7.622;2022-12-17T03:03:30;70.00;;;38.53;;
15114;SDS011;7658;51.456;7.622;2022-12-17T03:06:14;68.73;;;38.47;;
15114;SDS011;7658;51.456;7.622;2022-12-17T03:08:59;72.00;;;37.80;;
15114;SDS011;7658;51.456;7.622;2022-12-17T03:11:43;81.60;;;41.30;;
15114;SDS011;7658;51.456;7.622;2022-12-17T03:14:27;79.23;;;37.23;;
15114;SDS011;7658;51.456;7.622;2022-12-17T03:17:11;76.03;;;37.67;;
15114;SDS011;7658;51.456;7.622;2022-12-17T03:19:55;60.83;;;34.93;;
15114;SDS011;7658;51.456;7.622;2022-12-17T03:22:39;73.77;;;37.53;;
15114;SDS011;7658;51.456;7.622;2022-12-17T03:25:23;63.83;;;36.03;;
15114;SDS011;7658;51.456;7.622;2022-12-17T03:28:08;64.83;;;37.80;;
15114;SDS011;7658;51.456;7.622;2022-12-17T03:30:57;61.97;;;37.00;;
15114;SDS011;7658;51.456;7.622;2022-12-17T03:33:42;65.47;;;36.07;;
15114;SDS011;7658;51.456;7.622;2022-12-17T03:36:27;56.53;;;33.77;;
15114;SDS011;7658;51.456;7.622;2022-12-17T03:39:11;63.80;;;34.00;;
15114;SDS011;7658;51.456;7.622;2022-12-17T03:41:55;66.03;;;37.87;;
15114;SDS011;7658;51.456;7.622;2022-12-17T03:44:39;65.40;;;35.40;;
15114;SDS011;7658;51.456;7.622;2022-12-17T03:47:23;73.20;;;34.60;;
15114;SDS011;7658;51.456;7.622;2022-12-17T03:50:08;56.47;;;35.70;;
15114;SDS011;7658;51.456;7.622;2022-12-17T03:52:52;61.50;;;35.40;;
15114;SDS011;7658;51.456;7.622;2022-12-17T03:55:36;57.83;;;36.20;;
15114;SDS011;7658;51.456;7.622;2022-12-17T03:58:20;65.57;;;36.83;;
15114;SDS011;7658;51.456;7.622;2022-12-17T04:01:04;58.13;;;35.33;;
15114;SDS011;7658;51.456;7.622;2022-12-17T04:03:48;62.40;;;37.40;;
15114;SDS011;7658;51.456;7.622;2022-12-17T04:06:32;68.73;;;38.23;;
15114;SDS011;7658;51.456;7.622;2022-12-17T04:09:16;58.10;;;34.73;;
15114;SDS011;7658;51.456;7.622;2022-12-17T04:12:00;60.50;;;35.43;;
15114;SDS011;7658;51.456;7.622;2022-12-17T04:14:44;58.60;;;36.57;;
15114;SDS011;7658;51.456;7.622;2022-12-17T04:17:29;65.93;;;35.43;;
15114;SDS011;7658;51.456;7.622;2022-12-17T04:20:13;62.10;;;37.07;;
15114;SDS011;7658;51.456;7.622;2022-12-17T04:22:57;68.53;;;37.77;;
15114;SDS011;7658;51.456;7.622;2022-12-17T04:25:42;59.20;;;34.83;;
15114;SDS011;7658;51.456;7.622;2022-12-17T04:28:26;66.97;;;37.53;;
15114;SDS011;7658;51.456;7.622;2022-12-17T04:31:10;57.47;;;33.83;;
15114;SDS011;7658;51.456;7.622;2022-12-17T04:33:54;59.83;;;33.37;;
15114;SDS011;7658;51.456;7.622;2022-12-17T04:36:38;55.23;;;33.87;;
15114;SDS011;7658;51.456;7.622;2022-12-17T04:39:23;62.80;;;34.23;;
15114;SDS011;7658;51.456;7.622;2022-12-17T04:42:07;58.43;;;32.83;;
15114;SDS011;7658;51.456;7.622;2022-12-17T04:44:51;52.47;;;32.43;;
15114;SDS011;7658;51.456;7.622;2022-12-17T04:47:35;48.50;;;32.53;;
15114;SDS011;7658;51.456;7.622;2022-12-17T04:50:20;58.17;;;34.37;;
15114;SDS011;7658;51.456;7.622;2022-12-17T04:53:05;58.93;;;32.97;;
15114;SDS011;7658;51.456;7.622;2022-12-17T04:55:50;50.07;;;33.37;;
15114;SDS011;7658;51.456;7.622;2022-12-17T04:58:36;52.50;;;31.27;;
15114;SDS011;7658;51.456;7.622;2022-12-17T05:01:20;63.17;;;34.43;;
15114;SDS011;7658;51.456;7.622;2022-12-17T05:04:04;63.60;;;34.77;;
15114;SDS011;7658;51.456;7.622;2022-12-17T05:06:48;45.83;;;33.20;;
15114;SDS011;7658;51.456;7.622;2022-12-17T05:09:33;53.50;;;30.20;;
15114;SDS011;7658;51.456;7.622;2022-12-17T05:12:17;44.03;;;28.97;;
15114;SDS011;7658;51.456;7.622;2022-12-17T05:15:01;59.03;;;31.87;;
15114;SDS011;7658;51.456;7.622;2022-12-17T05:17:45;63.80;;;34.93;;
15114;SDS011;7658;51.456;7.622;2022-12-17T05:20:33;66.37;;;35.67;;
15114;SDS011;7658;51.456;7.622;2022-12-17T05:23:18;65.10;;;34.27;;
15114;SDS011;7658;51.456;7.622;2022-12-17T05:26:07;56.50;;;30.00;;
15114;SDS011;7658;51.456;7.622;2022-12-17T05:28:59;50.70;;;30.83;;
15114;SDS011;7658;51.456;7.622;2022-12-17T05:31:43;60.83;;;31.33;;
15114;SDS011;7658;51.456;7.622;2022-12-17T05:34:27;58.27;;;34.93;;
15114;SDS011;7658;51.456;7.622;2022-12-17T05:37:11;57.00;;;30.20;;
15114;SDS011;7658;51.456;7.622;2022-12-17T05:39:55;50.00;;;29.00;;
15114;SDS011;7658;51.456;7.622;2022-12-17T05:42:39;73.73;;;31.37;;
15114;SDS011;7658;51.456;7.622;2022-12-17T05:45:23;56.53;;;30.70;;
15114;SDS011;7658;51.456;7.622;2022-12-17T05:48:07;61.70;;;30.57;;
15114;SDS011;7658;51.456;7.622;2022-12-17T05:50:51;49.93;;;30.67;;
15114;SDS011;7658;51.456;7.622;2022-12-17T05:53:35;60.40;;;32.83;;
15114;SDS011;7658;51.456;7.622;2022-12-17T05:56:20;66.43;;;32.60;;
15114;SDS011;7658;51.456;7.622;2022-12-17T05:59:04;53.20;;;29.73;;
15114;SDS011;7658;51.456;7.622;2022-12-17T06:01:48;60.77;;;30.77;;
15114;SDS011;7658;51.456;7.622;2022-12-17T06:04:32;74.90;;;31.17;;
15114;SDS011;7658;51.456;7.622;2022-12-17T06:07:16;63.10;;;28.53;;
15114;SDS011;7658;51.456;7.622;2022-12-17T06:10:00;50.50;;;29.70;;
15114;SDS011;7658;51.456;7.622;2022-12-17T06:12:53;44.77;;;27.50;;
15114;SDS011;7658;51.456;7.622;2022-12-17T06:15:38;63.00;;;31.27;;
15114;SDS011;7658;51.456;7.622;2022-12-17T06:18:23;54.43;;;26.20;;
15114;SDS011;7658;51.456;7.622;2022-12-17T06:21:07;61.60;;;28.90;;
15114;SDS011;7658;51.456;7.622;2022-12-17T06:23:51;52.67;;;29.40;;
15114;SDS011;7658;51.456;7.622;2022-12-17T06:26:35;51.07;;;27.70;;
15114;SDS011;7658;51.456;7.622;2022-12-17T06:29:19;53.77;;;29.87;;
15114;SDS011;7658;51.456;7.622;2022-12-17T06:32:03;50.73;;;28.40;;
15114;SDS011;7658;51.456;7.622;2022-12-17T06:34:47;62.37;;;33.53;;
15114;SDS011;7658;51.456;7.622;2022-12-17T06:37:31;44.20;;;28.20;;
15114;SDS011;7658;51.456;7.622;2022-12-17T06:40:15;59.57;;;31.90;;
15114;SDS011;7658;51.456;7.622;2022-12-17T06:43:00;45.90;;;27.93;;
15114;SDS011;7658;51.456;7.622;2022-12-17T06:45:44;42.80;;;27.10;;
15114;SDS011;7658;51.456;7.622;2022-12-17T06:48:28;55.00;;;30.37;;
15114;SDS011;7658;51.456;7.622;2022-12-17T06:51:12;54.20;;;29.97;;
15114;SDS011;7658;51.456;7.622;2022-12-17T06:53:56;51.47;;;31.13;;
15114;SDS011;7658;51.456;7.622;2022-12-17T06:56:40;51.43;;;29.93;;
15114;SDS011;7658;51.456;7.622;2022-12-17T06:59:24;56.10;;;30.40;;
15114;SDS011;7658;51.456;7.622;2022-12-17T07:02:09;53.30;;;29.53;;
15114;SDS011;7658;51.456;7.622;2022-12-17T07:04:53;59.37;;;30.00;;
15114;SDS011;7658;51.456;7.622;2022-12-17T07:07:38;53.80;;;29.33;;
15114;SDS011;7658;51.456;7.622;2022-12-17T07:10:22;55.73;;;28.33;;
15114;SDS011;7658;51.456;7.622;2022-12-17T07:13:07;42.37;;;26.67;;
15114;SDS011;7658;51.456;7.622;2022-12-17T07:15:51;48.07;;;27.57;;
15114;SDS011;7658;51.456;7.622;2022-12-17T07:18:36;44.37;;;26.97;;
15114;SDS011;7658;51.456;7.622;2022-12-17T07:21:20;43.93;;;26.97;;
15114;SDS011;7658;51.456;7.622;2022-12-17T07:24:04;42.90;;;27.03;;
15114;SDS011;7658;51.456;7.622;2022-12-17T07:26:50;42.40;;;25.87;;
15114;SDS011;7658;51.456;7.622;2022-12-17T07:29:34;43.67;;;26.80;;
15114;SDS011;7658;51.456;7.622;2022-12-17T07:32:18;46.60;;;26.50;;
15114;SDS011;7658;51.456;7.622;2022-12-17T07:35:02;46.23;;;25.67;;
15114;SDS011;7658;51.456;7.622;2022-12-17T07:37:47;48.57;;;28.90;;
15114;SDS011;7658;51.456;7.622;2022-12-17T07:40:31;48.53;;;27.20;;
15114;SDS011;7658;51.456;7.622;2022-12-17T07:43:29;44.00;;;29.00;;
15114;SDS011;7658;51.456;7.622;2022-12-17T07:46:13;45.97;;;27.90;;
15114;SDS011;7658;51.456;7.622;2022-12-17T07:48:57;43.57;;;26.50;;
15114;SDS011;7658;51.456;7.622;2022-12-17T07:51:41;60.03;;;29.13;;
15114;SDS011;7658;51.456;7.622;2022-12-17T07:54:25;51.67;;;29.80;;
15114;SDS011;7658;51.456;7.622;2022-12-17T07:57:09;42.13;;;27.87;;
15114;SDS011;7658;51.456;7.622;2022-12-17T07:59:53;50.60;;;28.10;;
15114;SDS011;7658;51.456;7.622;2022-12-17T08:02:37;43.27;;;28.20;;
15114;SDS011;7658;51.456;7.622;2022-12-17T08:05:21;47.00;;;28.23;;
15114;SDS011;7658;51.456;7.622;2022-12-17T08:08:06;49.10;;;27.67;;
15114;SDS011;7658;51.456;7.622;2022-12-17T08:10:55;45.37;;;27.60;;
15114;SDS011;7658;51.456;7.622;2022-12-17T08:13:39;56.73;;;27.87;;
15114;SDS011;7658;51.456;7.622;2022-12-17T08:16:24;50.83;;;28.07;;
15114;SDS011;7658;51.456;7.622;2022-12-17T08:19:08;41.93;;;24.87;;
15114;SDS011;7658;51.456;7.622;2022-12-17T08:21:52;45.17;;;27.87;;
15114;SDS011;7658;51.456;7.622;2022-12-17T08:24:36;45.30;;;27.17;;
15114;SDS011;7658;51.456;7.622;2022-12-17T08:27:20;47.60;;;27.60;;
15114;SDS011;7658;51.456;7.622;2022-12-17T08:30:04;52.27;;;28.13;;
15114;SDS011;7658;51.456;7.622;2022-12-17T08:32:49;41.63;;;26.07;;
15114;SDS011;7658;51.456;7.622;2022-12-17T08:35:33;50.67;;;26.33;;
15114;SDS011;7658;51.456;7.622;2022-12-17T08:38:17;43.97;;;28.03;;
15114;SDS011;7658;51.456;7.622;2022-12-17T08:41:03;45.67;;;27.20;;
15114;SDS011;7658;51.456;7.622;2022-12-17T08:43:47;56.90;;;30.93;;
15114;SDS011;7658;51.456;7.622;2022-12-17T08:46:31;43.03;;;29.17;;
15114;SDS011;7658;51.456;7.622;2022-12-17T08:49:15;43.60;;;26.73;;
15114;SDS011;7658;51.456;7.622;2022-12-17T08:51:59;42.87;;;27.60;;
15114;SDS011;7658;51.456;7.622;2022-12-17T08:54:43;49.83;;;27.50;;
15114;SDS011;7658;51.456;7.622;2022-12-17T08:57:28;48.93;;;29.73;;
15114;SDS011;7658;51.456;7.622;2022-12-17T09:00:12;50.17;;;27.13;;
15114;SDS011;7658;51.456;7.622;2022-12-17T09:02:57;46.80;;;28.00;;
15114;SDS011;7658;51.456;7.622;2022-12-17T09:05:44;44.87;;;27.93;;
15114;SDS011;7658;51.456;7.622;2022-12-17T09:08:28;45.97;;;26.87;;
15114;SDS011;7658;51.456;7.622;2022-12-17T09:11:13;51.07;;;29.50;;
15114;SDS011;7658;51.456;7.622;2022-12-17T09:13:57;46.90;;;28.50;;
15114;SDS011;7658;51.456;7.622;2022-12-17T09:16:41;57.83;;;30.17;;
15114;SDS011;7658;51.456;7.622;2022-12-17T09:19:25;62.20;;;31.63;;
15114;SDS011;7658;51.456;7.622;2022-12-17T09:22:09;47.10;;;30.63;;
15114;SDS011;7658;51.456;7.622;2022-12-17T09:24:53;47.80;;;27.27;;
15114;SDS011;7658;51.456;7.622;2022-12-17T09:27:37;66.43;;;38.47;;
15114;SDS011;7658;51.456;7.622;2022-12-17T09:30:21;52.20;;;28.93;;
15114;SDS011;7658;51.456;7.622;2022-12-17T09:33:22;49.57;;;29.73;;
15114;SDS011;7658;51.456;7.622;2022-12-17T09:36:06;51.10;;;26.83;;
15114;SDS011;7658;51.456;7.622;2022-12-17T09:38:51;42.33;;;28.47;;
15114;SDS011;7658;51.456;7.622;2022-12-17T09:45:05;42.17;;;26.93;;
15114;SDS011;7658;51.456;7.622;2022-12-17T09:47:56;49.90;;;28.60;;
15114;SDS011;7658;51.456;7.622;2022-12-17T09:50:51;52.90;;;28.20;;
15114;SDS011;7658;51.456;7.622;2022-12-17T09:53:36;46.17;;;28.37;;
15114;SDS011;7658;51.456;7.622;2022-12-17T09:56:27;45.13;;;30.03;;
15114;SDS011;7658;51.456;7.622;2022-12-17T09:59:20;50.33;;;29.90;;
15114;SDS011;7658;51.456;7.622;2022-12-17T10:02:26;51.10;;;30.80;;
15114;SDS011;7658;51.456;7.622;2022-12-17T10:05:14;45.50;;;29.57;;
15114;SDS011;7658;51.456;7.622;2022-12-17T10:07:59;52.60;;;31.17;;
15114;SDS011;7658;51.456;7.622;2022-12-17T10:10:46;50.07;;;29.23;;
15114;SDS011;7658;51.456;7.622;2022-12-17T10:13:30;92.17;;;50.37;;
15114;SDS011;7658;51.456;7.622;2022-12-17T10:19:15;48.63;;;29.80;;
15114;SDS011;7658;51.456;7.622;2022-12-17T10:22:11;43.60;;;30.17;;
15114;SDS011;7658;51.456;7.622;2022-12-17T10:24:56;51.60;;;30.50;;
15114;SDS011;7658;51.456;7.622;2022-12-17T10:27:44;55.97;;;33.40;;
15114;SDS011;7658;51.456;7.622;2022-12-17T10:30:28;50.43;;;31.57;;
15114;SDS011;7658;51.456;7.622;2022-12-17T10:33:16;47.30;;;29.07;;
15114;SDS011;7658;51.456;7.622;2022-12-17T10:36:03;43.63;;;30.60;;
15114;SDS011;7658;51.456;7.622;2022-12-17T10:38:54;44.33;;;29.63;;
15114;SDS011;7658;51.456;7.622;2022-12-17T10:41:40;49.60;;;30.63;;
15114;SDS011;7658;51.456;7.622;2022-12-17T10:44:26;42.33;;;28.53;;
15114;SDS011;7658;51.456;7.622;2022-12-17T10:47:14;48.33;;;28.63;;
15114;SDS011;7658;51.456;7.622;2022-12-17T10:50:01;55.07;;;31.93;;
15114;SDS011;7658;51.456;7.622;2022-12-17T10:52:57;43.53;;;30.00;;
15114;SDS011;7658;51.456;7.622;2022-12-17T10:55:49;53.73;;;32.93;;
15114;SDS011;7658;51.456;7.622;2022-12-17T10:58:41;57.83;;;35.60;;
15114;SDS011;7658;51.456;7.622;2022-12-17T11:01:27;49.10;;;32.93;;
15114;SDS011;7658;51.456;7.622;2022-12-17T11:07:09;51.23;;;30.43;;
15114;SDS011;7658;51.456;7.622;2022-12-17T11:10:02;48.83;;;32.30;;
15114;SDS011;7658;51.456;7.622;2022-12-17T11:12:51;46.93;;;29.63;;
15114;SDS011;7658;51.456;7.622;2022-12-17T11:15:41;44.07;;;29.53;;
15114;SDS011;7658;51.456;7.622;2022-12-17T11:18:29;45.77;;;29.23;;
15114;SDS011;7658;51.456;7.622;2022-12-17T11:21:20;45.20;;;30.27;;
15114;SDS011;7658;51.456;7.622;2022-12-17T11:24:24;42.50;;;29.57;;
15114;SDS011;7658;51.456;7.622;2022-12-17T11:27:17;46.90;;;29.67;;
15114;SDS011;7658;51.456;7.622;2022-12-17T11:30:10;46.87;;;30.23;;
15114;SDS011;7658;51.456;7.622;2022-12-17T11:36:32;36.67;;;27.67;;
15114;SDS011;7658;51.456;7.622;2022-12-17T11:39:45;41.57;;;28.73;;
15114;SDS011;7658;51.456;7.622;2022-12-17T11:42:48;35.10;;;27.07;;
15114;SDS011;7658;51.456;7.622;2022-12-17T11:46:00;39.77;;;28.10;;
15114;SDS011;7658;51.456;7.622;2022-12-17T11:49:04;41.53;;;27.43;;
15114;SDS011;7658;51.456;7.622;2022-12-17T11:51:55;41.57;;;28.30;;
15114;SDS011;7658;51.456;7.622;2022-12-17T11:54:57;42.80;;;27.60;;
15114;SDS011;7658;51.456;7.622;2022-12-17T11:58:02;35.93;;;25.57;;
15114;SDS011;7658;51.456;7.622;2022-12-17T12:01:08;43.97;;;26.93;;
15114;SDS011;7658;51.456;7.622;2022-12-17T12:10:12;36.77;;;27.43;;
15114;SDS011;7658;51.456;7.622;2022-12-17T12:13:11;38.50;;;27.03;;
15114;SDS011;7658;51.456;7.622;2022-12-17T12:16:14;39.47;;;25.93;;
15114;SDS011;7658;51.456;7.622;2022-12-17T12:19:12;43.23;;;27.90;;
15114;SDS011;7658;51.456;7.622;2022-12-17T12:22:36;37.03;;;27.67;;
15114;SDS011;7658;51.456;7.622;2022-12-17T12:28:51;36.33;;;27.23;;
15114;SDS011;7658;51.456;7.622;2022-12-17T12:34:47;37.00;;;25.50;;
15114;SDS011;7658;51.456;7.622;2022-12-17T12:37:31;38.17;;;26.63;;
15114;SDS011;7658;51.456;7.622;2022-12-17T12:40:23;36.13;;;26.60;;
15114;SDS011;7658;51.456;7.622;2022-12-17T12:43:31;34.47;;;25.43;;
15114;SDS011;7658;51.456;7.622;2022-12-17T12:49:25;38.57;;;26.00;;
15114;SDS011;7658;51.456;7.622;2022-12-17T12:52:29;38.37;;;26.17;;
15114;SDS011;7658;51.456;7.622;2022-12-17T12:55:14;35.43;;;25.43;;
15114;SDS011;7658;51.456;7.622;2022-12-17T12:58:05;37.93;;;25.17;;
15114;SDS011;7658;51.456;7.622;2022-12-17T13:01:12;37.87;;;25.77;;
15114;SDS011;7658;51.456;7.622;2022-12-17T13:03:57;38.80;;;26.30;;
15114;SDS011;7658;51.456;7.622;2022-12-17T13:16:52;43.10;;;28.77;;
15114;SDS011;7658;51.456;7.622;2022-12-17T13:21:56;34.47;;;27.10;;
15114;SDS011;7658;51.456;7.622;2022-12-17T13:24:52;38.60;;;27.37;;
15114;SDS011;7658;51.456;7.622;2022-12-17T13:29:58;40.73;;;27.47;;
15114;SDS011;7658;51.456;7.622;2022-12-17T13:32:41;41.17;;;26.93;;
15114;SDS011;7658;51.456;7.622;2022-12-17T13:35:25;35.93;;;27.37;;
15114;SDS011;7658;51.456;7.622;2022-12-17T13:37:58;34.93;;;25.87;;
15114;SDS011;7658;51.456;7.622;2022-12-17T13:42:51;36.60;;;26.37;;
15114;SDS011;7658;51.456;7.622;2022-12-17T13:45:18;42.10;;;28.17;;
15114;SDS011;7658;51.456;7.622;2022-12-17T13:47:56;45.13;;;31.07;;
15114;SDS011;7658;51.456;7.622;2022-12-17T13:52:50;48.30;;;32.47;;
15114;SDS011;7658;51.456;7.622;2022-12-17T13:55:18;42.03;;;28.77;;
15114;SDS011;7658;51.456;7.622;2022-12-17T13:57:46;38.30;;;29.27;;
15114;SDS011;7658;51.456;7.622;2022-12-17T14:02:49;37.50;;;28.17;;
15114;SDS011;7658;51.456;7.622;2022-12-17T14:05:30;38.97;;;29.27;;
15114;SDS011;7658;51.456;7.622;2022-12-17T14:08:01;59.03;;;35.87;;
15114;SDS011;7658;51.456;7.622;2022-12-17T14:10:29;46.70;;;31.13;;
15114;SDS011;7658;51.456;7.622;2022-12-17T14:13:05;55.20;;;33.97;;
15114;SDS011;7658;51.456;7.622;2022-12-17T14:15:36;43.50;;;29.57;;
15114;SDS011;7658;51.456;7.622;2022-12-17T14:18:02;39.93;;;29.97;;
15114;SDS011;7658;51.456;7.622;2022-12-17T14:20:32;43.57;;;30.53;;
15114;SDS011;7658;51.456;7.622;2022-12-17T14:23:02;42.90;;;29.43;;
15114;SDS011;7658;51.456;7.622;2022-12-17T14:25:41;40.83;;;28.23;;
15114;SDS011;7658;51.456;7.622;2022-12-17T14:31:07;44.77;;;30.87;;
15114;SDS011;7658;51.456;7.622;2022-12-17T14:34:04;39.87;;;28.17;;
15114;SDS011;7658;51.456;7.622;2022-12-17T14:36:33;45.63;;;29.63;;
15114;SDS011;7658;51.456;7.622;2022-12-17T14:39:02;43.90;;;31.27;;
15114;SDS011;7658;51.456;7.622;2022-12-17T14:41:36;36.53;;;27.10;;
15114;SDS011;7658;51.456;7.622;2022-12-17T14:44:23;45.87;;;31.00;;
15114;SDS011;7658;51.456;7.622;2022-12-17T14:47:05;43.43;;;29.60;;
15114;SDS011;7658;51.456;7.622;2022-12-17T14:49:36;39.23;;;28.00;;
15114;SDS011;7658;51.456;7.622;2022-12-17T14:52:10;41.73;;;30.43;;
15114;SDS011;7658;51.456;7.622;2022-12-17T14:54:42;48.13;;;31.17;;
15114;SDS011;7658;51.456;7.622;2022-12-17T14:57:16;38.57;;;27.43;;
15114;SDS011;7658;51.456;7.622;2022-12-17T14:59:46;45.27;;;29.20;;
15114;SDS011;7658;51.456;7.622;2022-12-17T15:02:23;44.30;;;30.37;;
15114;SDS011;7658;51.456;7.622;2022-12-17T15:04:55;41.10;;;28.60;;
15114;SDS011;7658;51.456;7.622;2022-12-17T15:07:27;42.33;;;29.43;;
15114;SDS011;7658;51.456;7.622;2022-12-17T15:09:54;40.73;;;28.17;;
15114;SDS011;7658;51.456;7.622;2022-12-17T15:12:21;44.30;;;30.57;;
15114;SDS011;7658;51.456;7.622;2022-12-17T15:14:48;41.43;;;28.73;;
15114;SDS011;7658;51.456;7.622;2022-12-17T15:17:14;46.57;;;30.73;;
15114;SDS011;7658;51.456;7.622;2022-12-17T15:19:41;48.67;;;31.60;;
15114;SDS011;7658;51.456;7.622;2022-12-17T15:22:13;43.67;;;29.47;;
15114;SDS011;7658;51.456;7.622;2022-12-17T15:24:40;54.07;;;32.13;;
15114;SDS011;7658;51.456;7.622;2022-12-17T15:27:07;46.87;;;31.70;;
15114;SDS011;7658;51.456;7.622;2022-12-17T15:29:40;48.67;;;32.80;;
15114;SDS011;7658;51.456;7.622;2022-12-17T15:32:09;48.53;;;31.73;;
15114;SDS011;7658;51.456;7.622;2022-12-17T15:34:44;45.83;;;30.87;;
15114;SDS011;7658;51.456;7.622;2022-12-17T15:37:10;43.80;;;30.50;;
15114;SDS011;7658;51.456;7.622;2022-12-17T15:39:36;47.10;;;31.97;;
15114;SDS011;7658;51.456;7.622;2022-12-17T15:42:02;48.43;;;33.73;;
15114;SDS011;7658;51.456;7.622;2022-12-17T15:44:46;49.03;;;34.60;;
15114;SDS011;7658;51.456;7.622;2022-12-17T15:47:12;48.13;;;32.77;;
15114;SDS011;7658;51.456;7.622;2022-12-17T15:49:37;46.27;;;32.17;;
15114;SDS011;7658;51.456;7.622;2022-12-17T15:52:03;55.17;;;32.97;;
15114;SDS011;7658;51.456;7.622;2022-12-17T15:54:29;46.10;;;30.43;;
15114;SDS011;7658;51.456;7.622;2022-12-17T15:56:55;44.40;;;30.17;;
15114;SDS011;7658;51.456;7.622;2022-12-17T15:59:22;48.13;;;31.20;;
15114;SDS011;7658;51.456;7.622;2022-12-17T16:01:48;46.10;;;31.57;;
15114;SDS011;7658;51.456;7.622;2022-12-17T16:04:13;45.03;;;30.80;;
15114;SDS011;7658;51.456;7.622;2022-12-17T16:06:39;45.63;;;29.83;;
15114;SDS011;7658;51.456;7.622;2022-12-17T16:09:05;47.77;;;29.87;;
15114;SDS011;7658;51.456;7.622;2022-12-17T16:11:31;42.03;;;28.20;;
15114;SDS011;7658;51.456;7.622;2022-12-17T16:13:56;47.17;;;31.20;;
15114;SDS011;7658;51.456;7.622;2022-12-17T16:16:22;50.00;;;29.43;;
15114;SDS011;7658;51.456;7.622;2022-12-17T16:18:48;46.07;;;30.03;;
15114;SDS011;7658;51.456;7.622;2022-12-17T16:21:14;45.30;;;30.23;;
15114;SDS011;7658;51.456;7.622;2022-12-17T16:23:41;46.90;;;29.60;;
15114;SDS011;7658;51.456;7.622;2022-12-17T16:26:07;47.10;;;33.47;;
15114;SDS011;7658;51.456;7.622;2022-12-17T16:28:33;52.70;;;32.37;;
15114;SDS011;7658;51.456;7.622;2022-12-17T16:33:31;50.47;;;31.37;;
15114;SDS011;7658;51.456;7.622;2022-12-17T16:35:58;51.63;;;30.73;;
15114;SDS011;7658;51.456;7.622;2022-12-17T16:38:24;49.63;;;30.90;;
15114;SDS011;7658;51.456;7.622;2022-12-17T16:40:52;44.30;;;32.17;;
15114;SDS011;7658;51.456;7.622;2022-12-17T16:43:19;42.63;;;31.17;;
15114;SDS011;7658;51.456;7.622;2022-12-17T16:45:46;50.40;;;32.73;;
15114;SDS011;7658;51.456;7.622;2022-12-17T16:48:14;44.90;;;30.87;;
15114;SDS011;7658;51.456;7.622;2022-12-17T16:50:42;48.33;;;31.23;;
15114;SDS011;7658;51.456;7.622;2022-12-17T16:53:08;48.83;;;31.63;;
15114;SDS011;7658;51.456;7.622;2022-12-17T16:55:41;46.50;;;33.13;;
15114;SDS011;7658;51.456;7.622;2022-12-17T16:58:11;48.97;;;31.60;;
15114;SDS011;7658;51.456;7.622;2022-12-17T17:00:37;44.20;;;30.70;;
15114;SDS011;7658;51.456;7.622;2022-12-17T17:03:04;48.63;;;31.67;;
15114;SDS011;7658;51.456;7.622;2022-12-17T17:05:31;49.67;;;32.43;;
15114;SDS011;7658;51.456;7.622;2022-12-17T17:07:58;52.83;;;33.07;;